Time;durP1;ratioP1;P1;durP2;ratioP2;P2;SDS_P1;SDS_P2;PMS_P1;PMS_P2;Temp;Humidity;BMP_temperature;BMP_pressure;BME280_temperature;BME280_humidity;BME280_pressure;Samples;Min_cycle;Max_cycle;Signal;HPM_P1;HPM_P2
2021/12/06 00:00:33;;;;;;;36.20;22.10;;;;;;;0.34;82.46;99770.07;87061;1311;22656;-68
2021/12/06 00:02:42;;;;;;;37.20;22.10;;;;;;;0.29;82.17;99770.11;87050;1312;22675;-77
2021/12/06 00:04:49;;;;;;;34.10;21.50;;;;;;;0.27;82.36;99771.67;87075;1311;22580;-79
2021/12/06 00:06:56;;;;;;;35.70;21.10;;;;;;;0.28;82.29;99775.61;87085;1311;22558;-68
2021/12/06 00:09:06;;;;;;;38.60;22.20;;;;;;;0.29;82.35;99781.43;87103;1312;22626;-69
2021/12/06 00:11:14;;;;;;;30.00;19.90;;;;;;;0.33;82.35;99784.50;87096;1311;22639;-68
2021/12/06 00:13:23;;;;;;;36.20;21.00;;;;;;;0.37;82.29;99783.79;87067;1311;22571;-68
2021/12/06 00:15:33;;;;;;;38.30;22.80;;;;;;;0.39;82.16;99786.86;87043;1313;22656;-68
2021/12/06 00:17:39;;;;;;;42.80;22.80;;;;;;;0.39;82.33;99789.95;87116;1311;22667;-68
2021/12/06 00:19:49;;;;;;;44.80;24.60;;;;;;;0.40;82.28;99789.27;87094;1311;22589;-68
2021/12/06 00:21:56;;;;;;;43.50;24.40;;;;;;;0.40;82.12;99789.77;87074;1311;22564;-78
2021/12/06 00:24:06;;;;;;;44.90;23.90;;;;;;;0.35;82.12;99789.81;87084;1311;24325;-78
2021/12/06 00:26:12;;;;;;;45.00;24.30;;;;;;;0.30;82.12;99789.33;87106;1311;22572;-68
2021/12/06 00:28:21;;;;;;;47.60;24.50;;;;;;;0.29;82.29;99792.93;87079;1311;23009;-68
2021/12/06 00:30:28;;;;;;;40.50;21.80;;;;;;;0.31;82.36;99794.64;87087;1312;22565;-68
2021/12/06 00:32:34;;;;;;;38.60;21.40;;;;;;;0.31;82.14;99795.50;87063;1311;22625;-77
2021/12/06 00:34:42;;;;;;;34.90;22.70;;;;;;;0.30;81.98;99796.36;87101;1312;23807;-78
2021/12/06 00:36:54;;;;;;;46.50;24.90;;;;;;;0.26;82.14;99794.15;87095;1312;22652;-78
2021/12/06 00:39:01;;;;;;;47.00;25.30;;;;;;;0.29;82.56;99794.30;87082;1311;22750;-78
2021/12/06 00:41:10;;;;;;;56.90;26.40;;;;;;;0.32;82.49;99789.99;86398;1312;1003044;-68
2021/12/06 00:43:20;;;;;;;48.70;25.00;;;;;;;0.33;82.33;99791.02;87097;1312;25617;-68
2021/12/06 00:45:26;;;;;;;39.30;22.10;;;;;;;0.32;82.48;99796.16;87078;1312;22654;-68
2021/12/06 00:47:32;;;;;;;37.30;21.10;;;;;;;0.35;82.47;99800.98;87083;1312;22710;-68
2021/12/06 00:49:44;;;;;;;37.00;21.50;;;;;;;0.36;82.29;99802.15;87062;1312;22583;-68
2021/12/06 00:51:51;;;;;;;34.10;19.00;;;;;;;0.39;82.29;99805.05;87078;1311;23878;-67
2021/12/06 00:54:00;;;;;;;28.00;17.80;;;;;;;0.39;82.21;99809.17;87057;1311;24302;-68
2021/12/06 00:56:07;;;;;;;29.10;18.70;;;;;;;0.38;82.37;99804.19;87072;1311;25455;-78
2021/12/06 00:58:16;;;;;;;31.20;20.10;;;;;;;0.39;82.35;99804.52;87102;1312;23995;-78
2021/12/06 01:00:25;;;;;;;32.80;18.80;;;;;;;0.40;82.17;99807.63;87109;1312;22556;-77
2021/12/06 01:02:31;;;;;;;33.60;20.30;;;;;;;0.40;82.23;99814.32;87113;1312;22594;-77
2021/12/06 01:04:38;;;;;;;29.10;18.90;;;;;;;0.39;82.28;99816.02;87100;1312;23784;-77
2021/12/06 01:06:48;;;;;;;28.30;17.40;;;;;;;0.40;82.13;99814.84;87106;1312;25405;-77
2021/12/06 01:08:54;;;;;;;29.00;17.30;;;;;;;0.40;82.18;99813.30;87068;1312;22722;-77
2021/12/06 01:11:03;;;;;;;29.10;17.60;;;;;;;0.42;81.92;99809.66;87099;1312;24393;-68
2021/12/06 01:13:10;;;;;;;30.50;19.50;;;;;;;0.42;82.18;99803.15;87062;1311;25294;-65
2021/12/06 01:15:20;;;;;;;27.60;17.50;;;;;;;0.42;82.15;99796.63;87072;1311;22829;-68
2021/12/06 01:17:29;;;;;;;36.60;20.80;;;;;;;0.43;82.37;99795.77;87118;1312;22708;-77
2021/12/06 01:19:36;;;;;;;37.00;21.60;;;;;;;0.38;82.07;99791.52;87081;1312;25457;-77
2021/12/06 01:21:51;;;;;;;40.20;19.70;;;;;;;0.33;82.25;99796.68;87112;1311;23818;-77
2021/12/06 01:24:01;;;;;;;33.70;17.90;;;;;;;0.30;82.07;99800.83;87082;1312;22587;-77
2021/12/06 01:26:26;;;;;;;28.10;17.60;;;;;;;0.28;82.17;99795.17;87074;1312;25435;-69
2021/12/06 01:31:00;;;;;;;;;;;;;;;0.30;82.47;99797.39;87068;1311;22766;-74
2021/12/06 01:40:22;;;;;;;30.60;17.90;;;;;;;0.24;82.47;99808.22;86646;1317;22603;-78
2021/12/06 01:42:29;;;;;;;28.70;17.50;;;;;;;0.26;82.46;99809.08;86688;1318;22580;-70
2021/12/06 01:44:37;;;;;;;30.00;18.30;;;;;;;0.28;82.54;99809.39;86624;1318;22579;-68
2021/12/06 01:46:48;;;;;;;32.30;19.20;;;;;;;0.28;82.57;99818.14;86684;1317;22625;-68
2021/12/06 01:48:54;;;;;;;29.40;17.60;;;;;;;0.32;82.63;99823.63;86662;1318;22584;-68
2021/12/06 01:51:01;;;;;;;27.60;17.10;;;;;;;0.35;82.72;99826.87;86677;1318;22572;-67
2021/12/06 01:53:12;;;;;;;30.10;17.70;;;;;;;0.36;82.59;99827.89;87078;1311;22666;-68
2021/12/06 01:55:23;;;;;;;34.20;19.00;;;;;;;0.34;82.60;99833.89;87084;1311;22708;-68
2021/12/06 01:57:30;;;;;;;33.00;18.40;;;;;;;0.32;82.45;99837.36;87075;1311;25369;-78
2021/12/06 01:59:40;;;;;;;30.10;16.80;;;;;;;0.30;82.46;99834.11;87086;1312;23844;-78
2021/12/06 02:01:46;;;;;;;33.80;18.90;;;;;;;0.28;82.43;99836.17;87084;1312;22562;-78
2021/12/06 02:03:55;;;;;;;26.80;17.00;;;;;;;0.29;82.37;99835.81;87073;1312;25449;-77
2021/12/06 02:06:05;;;;;;;28.10;18.60;;;;;;;0.32;82.44;99837.00;87095;1312;22579;-76
2021/12/06 02:08:11;;;;;;;29.30;17.90;;;;;;;0.34;82.72;99836.64;87093;1312;22857;-77
2021/12/06 02:10:18;;;;;;;37.30;19.10;;;;;;;0.33;82.84;99836.81;87094;1312;25459;-77
2021/12/06 02:12:26;;;;;;;35.20;21.60;;;;;;;0.34;82.64;99836.30;87107;1311;22561;-77
2021/12/06 02:14:45;;;;;;;39.20;20.50;;;;;;;0.33;82.72;99832.20;87079;1312;22831;-77
2021/12/06 02:17:03;;;;;;;39.00;21.20;;;;;;;0.33;82.60;99831.85;87120;1312;22587;-77
2021/12/06 02:19:18;;;;;;;38.50;19.80;;;;;;;0.36;82.78;99831.16;87080;1312;22810;-77
2021/12/06 02:21:31;;;;;;;35.30;20.50;;;;;;;0.37;82.47;99833.20;87112;1312;23854;-68
2021/12/06 02:23:37;;;;;;;31.60;18.40;;;;;;;0.40;82.68;99835.59;87053;1312;22558;-68
2021/12/06 02:25:43;;;;;;;34.20;19.20;;;;;;;0.43;82.44;99836.95;87061;1312;25022;-67
2021/12/06 02:27:51;;;;;;;37.30;19.70;;;;;;;0.41;82.63;99834.05;87117;1311;25370;-68
2021/12/06 02:29:58;;;;;;;35.30;18.80;;;;;;;0.42;82.61;99838.15;87089;1312;25348;-68
2021/12/06 02:32:10;;;;;;;33.30;19.50;;;;;;;0.44;82.67;99841.40;87071;1312;22799;-78
2021/12/06 02:34:16;;;;;;;32.10;18.50;;;;;;;0.46;82.75;99837.45;87110;1311;22549;-78
2021/12/06 02:36:27;;;;;;;33.00;18.20;;;;;;;0.44;82.47;99838.49;87020;1312;24439;-77
2021/12/06 02:38:33;;;;;;;30.40;18.50;;;;;;;0.39;82.26;99841.77;87061;1312;22686;-78
2021/12/06 02:40:43;;;;;;;29.10;17.90;;;;;;;0.37;82.39;99840.92;87060;1312;22575;-78
2021/12/06 02:42:49;;;;;;;27.30;15.40;;;;;;;0.38;82.71;99845.37;87074;1312;23854;-68
2021/12/06 02:44:56;;;;;;;31.50;17.60;;;;;;;0.39;82.59;99843.13;87098;1312;22790;-68
2021/12/06 02:47:05;;;;;;;24.80;16.60;;;;;;;0.40;82.79;99842.11;87114;1312;22577;-77
2021/12/06 02:49:12;;;;;;;27.30;15.50;;;;;;;0.39;82.72;99837.64;87119;1312;26476;-77
2021/12/06 02:51:19;;;;;;;28.80;17.10;;;;;;;0.40;82.86;99838.85;87124;1312;22558;-68
2021/12/06 02:53:26;;;;;;;25.40;15.20;;;;;;;0.38;82.68;99840.39;87053;1312;22596;-68
2021/12/06 02:55:35;;;;;;;26.80;16.00;;;;;;;0.36;82.64;99844.52;87086;1311;22737;-68
2021/12/06 02:57:45;;;;;;;24.70;15.30;;;;;;;0.34;82.63;99846.93;87104;1312;24299;-69
2021/12/06 02:59:55;;;;;;;26.40;16.30;;;;;;;0.37;82.90;99850.88;87060;1312;22572;-68
2021/12/06 03:02:04;;;;;;;23.30;15.00;;;;;;;0.40;82.71;99850.52;87103;1312;24088;-77
2021/12/06 03:04:10;;;;;;;24.60;16.60;;;;;;;0.40;82.69;99850.70;87105;1312;24285;-78
2021/12/06 03:06:20;;;;;;;27.60;16.40;;;;;;;0.43;82.76;99848.27;87141;1312;22559;-79
2021/12/06 03:08:40;;;;;;;22.40;14.70;;;;;;;0.47;82.86;99848.08;87073;1312;22499;-77
2021/12/06 03:10:50;;;;;;;22.60;14.80;;;;;;;0.49;82.97;99848.08;87096;1311;22565;-79
2021/12/06 03:12:56;;;;;;;22.20;14.80;;;;;;;0.49;82.65;99847.55;87095;1312;22560;-79
2021/12/06 03:15:03;;;;;;;25.80;15.20;;;;;;;0.49;82.41;99847.21;87082;1311;22674;-79
2021/12/06 03:17:14;;;;;;;22.20;14.40;;;;;;;0.46;82.58;99845.68;87102;1312;22571;-78
2021/12/06 03:19:21;;;;;;;19.50;13.10;;;;;;;0.46;82.43;99847.92;87090;1312;22578;-79
2021/12/06 03:21:27;;;;;;;16.40;11.90;;;;;;;0.46;82.43;99845.35;87094;1311;22576;-79
2021/12/06 03:23:36;;;;;;;16.30;11.90;;;;;;;0.48;82.52;99848.23;87085;1312;22793;-79
2021/12/06 03:25:46;;;;;;;16.70;12.10;;;;;;;0.50;82.67;99848.75;87083;1312;25361;-79
2021/12/06 03:27:52;;;;;;;17.20;11.40;;;;;;;0.49;82.39;99849.62;87078;1312;22517;-78
2021/12/06 03:29:59;;;;;;;16.40;11.80;;;;;;;0.47;82.27;99848.59;87090;1310;22588;-78
2021/12/06 03:32:09;;;;;;;18.20;12.70;;;;;;;0.43;82.34;99848.95;87089;1312;22761;-79
2021/12/06 03:34:17;;;;;;;;;;;;;;;0.41;82.33;99847.09;87043;1313;23793;-79
2021/12/06 03:36:24;;;;;;;18.50;11.20;;;;;;;0.39;82.39;99849.65;87099;1311;22642;-69
2021/12/06 03:38:31;;;;;;;22.20;13.20;;;;;;;0.36;82.58;99847.28;87096;1312;24390;-68
2021/12/06 03:40:40;;;;;;;18.60;12.50;;;;;;;0.35;82.57;99848.48;87075;1312;22842;-68
2021/12/06 03:42:49;;;;;;;16.70;11.70;;;;;;;0.35;82.52;99847.80;87142;1311;22593;-78
2021/12/06 03:44:55;;;;;;;13.00;10.70;;;;;;;0.34;82.57;99852.60;87089;1312;24022;-79
2021/12/06 03:47:05;;;;;;;16.10;10.90;;;;;;;0.36;82.37;99852.95;87097;1311;22808;-79
2021/12/06 03:49:12;;;;;;;14.60;10.90;;;;;;;0.35;82.52;99855.70;84177;1312;1003682;-79
2021/12/06 03:51:18;;;;;;;13.80;10.30;;;;;;;0.35;82.85;99855.70;87069;1312;23815;-69
2021/12/06 03:53:25;;;;;;;14.40;11.50;;;;;;;0.36;82.58;99855.69;86363;1312;1003204;-68
2021/12/06 03:55:31;;;;;;;16.50;10.60;;;;;;;0.34;82.80;99859.64;87080;1311;22554;-69
2021/12/06 03:57:38;;;;;;;13.60;10.00;;;;;;;0.35;82.84;99863.08;87112;1312;22583;-68
2021/12/06 03:59:44;;;;;;;13.00;9.90;;;;;;;0.36;82.93;99861.54;87066;1311;24310;-69
2021/12/06 04:01:51;;;;;;;15.30;10.30;;;;;;;0.35;82.74;99866.17;87111;1312;22555;-77
2021/12/06 04:03:58;;;;;;;12.10;9.30;;;;;;;0.37;82.72;99865.98;87098;1312;22584;-78
2021/12/06 04:06:04;;;;;;;12.00;9.00;;;;;;;0.42;82.72;99864.92;87102;1312;25337;-68
2021/12/06 04:08:11;;;;;;;13.00;9.40;;;;;;;0.44;82.75;99871.43;87066;1312;22564;-68
2021/12/06 04:10:18;;;;;;;12.10;9.30;;;;;;;0.44;82.58;99875.55;87066;1312;22690;-69
2021/12/06 04:12:24;;;;;;;12.60;10.20;;;;;;;0.43;82.61;99882.07;87110;1312;25456;-68
2021/12/06 04:14:31;;;;;;;13.50;10.20;;;;;;;0.43;82.78;99883.44;87070;1312;22714;-69
2021/12/06 04:16:37;;;;;;;15.00;11.30;;;;;;;0.38;82.54;99883.30;87047;1312;22565;-78
2021/12/06 04:18:44;;;;;;;14.50;11.00;;;;;;;0.34;82.52;99885.38;87089;1312;22574;-78
2021/12/06 04:20:54;;;;;;;15.60;11.70;;;;;;;0.31;82.49;99889.33;87080;1312;22716;-74
2021/12/06 04:23:01;;;;;;;13.20;9.40;;;;;;;0.30;82.71;99892.09;87049;1312;25387;-68
2021/12/06 04:25:10;;;;;;;14.00;10.60;;;;;;;0.30;82.69;99891.58;86812;1312;386247;-68
2021/12/06 04:27:18;;;;;;;13.00;8.90;;;;;;;0.29;82.60;99894.83;87109;1312;22664;-79
2021/12/06 04:29:25;;;;;;;12.10;9.10;;;;;;;0.29;82.78;99892.59;87070;1312;25456;-78
2021/12/06 04:31:34;;;;;;;10.70;8.70;;;;;;;0.27;82.64;99897.41;87092;1312;22744;-68
2021/12/06 04:33:43;;;;;;;13.30;9.90;;;;;;;0.28;82.88;99902.21;87072;1312;24304;-68
2021/12/06 04:35:53;;;;;;;13.50;10.20;;;;;;;0.27;82.87;99906.51;87106;1311;22564;-67
2021/12/06 04:38:03;;;;;;;12.60;9.20;;;;;;;0.23;82.61;99911.14;87071;1312;22569;-79
2021/12/06 04:40:13;;;;;;;15.30;9.20;;;;;;;0.23;82.52;99916.27;87072;1311;22581;-79
2021/12/06 04:42:21;;;;;;;14.10;9.60;;;;;;;0.24;82.72;99919.88;87105;1312;22560;-79
2021/12/06 04:44:27;;;;;;;14.00;10.40;;;;;;;0.26;82.88;99928.30;87108;1312;22597;-78
2021/12/06 04:46:34;;;;;;;17.50;11.70;;;;;;;0.30;83.18;99931.21;87063;1312;22646;-78
2021/12/06 04:48:40;;;;;;;18.90;12.40;;;;;;;0.31;83.05;99939.95;87082;1312;26136;-78
2021/12/06 04:50:48;;;;;;;21.40;13.40;;;;;;;0.29;83.08;99940.65;87076;1311;23793;-78
2021/12/06 04:52:55;;;;;;;24.90;16.00;;;;;;;0.27;82.62;99945.62;87071;1311;22633;-68
2021/12/06 04:55:01;;;;;;;36.70;18.00;;;;;;;0.28;83.04;99948.02;87067;1311;22578;-70
2021/12/06 04:57:13;;;;;;;32.10;17.30;;;;;;;0.29;82.66;99948.01;87059;1312;22607;-70
2021/12/06 04:59:25;;;;;;;37.10;17.30;;;;;;;0.29;82.79;99949.03;87077;1311;22582;-69
2021/12/06 05:01:35;;;;;;;37.00;17.40;;;;;;;0.28;82.92;99950.26;87090;1312;26582;-79
2021/12/06 05:03:42;;;;;;;32.20;17.00;;;;;;;0.27;82.96;99951.63;87072;1311;22668;-79
2021/12/06 05:05:51;;;;;;;19.20;12.50;;;;;;;0.28;82.90;99957.45;87079;1312;22547;-78
2021/12/06 05:07:59;;;;;;;20.50;12.80;;;;;;;0.26;82.97;99961.58;87100;1312;23843;-78
2021/12/06 05:10:10;;;;;;;17.70;12.30;;;;;;;0.24;82.96;99963.81;87087;1312;22685;-77
2021/12/06 05:12:17;;;;;;;22.40;13.50;;;;;;;0.22;82.65;99962.45;87115;1312;25465;-68
2021/12/06 05:14:24;;;;;;;16.10;11.10;;;;;;;0.17;82.80;99961.77;87085;1311;22571;-68
2021/12/06 05:16:35;;;;;;;19.60;13.90;;;;;;;0.17;82.92;99961.42;87095;1312;24337;-78
2021/12/06 05:18:43;;;;;;;;;;;;;;;0.20;82.92;99964.17;87092;1312;25443;-77
2021/12/06 05:20:52;;;;;;;18.20;11.60;;;;;;;0.20;83.12;99964.17;87092;1311;23845;-77
2021/12/06 05:22:59;;;;;;;16.50;10.90;;;;;;;0.22;83.04;99962.27;87085;1312;24323;-68
2021/12/06 05:25:08;;;;;;;20.90;13.20;;;;;;;0.24;82.92;99965.17;87064;1312;22554;-69
2021/12/06 05:27:15;;;;;;;17.20;13.00;;;;;;;0.28;83.22;99962.95;87104;1311;22567;-77
2021/12/06 05:29:27;;;;;;;20.60;14.10;;;;;;;0.32;83.17;99963.10;87073;1312;22566;-77
2021/12/06 05:31:39;;;;;;;20.30;14.00;;;;;;;0.32;82.91;99963.79;87074;1311;22589;-69
2021/12/06 05:33:53;;;;;;;19.70;14.00;;;;;;;0.28;82.65;99954.70;87070;1311;22942;-68
2021/12/06 05:36:00;;;;;;;19.80;12.90;;;;;;;0.27;82.90;99954.04;87064;1311;22561;-68
2021/12/06 05:38:10;;;;;;;18.90;12.40;;;;;;;0.28;82.69;99952.65;87071;1312;24971;-68
2021/12/06 05:40:16;;;;;;;;;;;;;;;0.29;82.49;99945.96;87081;1312;22552;-68
2021/12/06 05:42:27;;;;;;;17.30;12.60;;;;;;;0.26;82.82;99943.05;87126;1312;22605;-81
2021/12/06 05:44:32;;;;;;;;;;;;;;;0.27;82.83;99939.45;87110;1312;25341;-78
2021/12/06 05:46:41;;;;;;;18.40;13.70;;;;;;;0.28;82.73;99936.18;87101;1312;22562;-80
2021/12/06 05:48:51;;;;;;;19.50;13.30;;;;;;;0.34;83.03;99936.51;87083;1312;22578;-80
2021/12/06 05:50:57;;;;;;;18.40;13.50;;;;;;;0.35;82.91;99931.19;87120;1311;23751;-68
2021/12/06 05:53:07;;;;;;;17.70;12.60;;;;;;;0.32;82.83;99931.19;87086;1312;22559;-67
2021/12/06 05:55:13;;;;;;;17.70;12.60;;;;;;;0.31;82.61;99927.95;87105;1312;22708;-69
2021/12/06 05:57:20;;;;;;;23.10;14.50;;;;;;;0.28;82.82;99926.91;87094;1311;22544;-68
2021/12/06 05:59:26;;;;;;;18.50;12.70;;;;;;;0.26;82.82;99925.73;87080;1311;22687;-68
2021/12/06 06:01:33;;;;;;;19.60;13.10;;;;;;;0.23;82.79;99921.96;87078;1312;22571;-79
2021/12/06 06:03:39;;;;;;;17.10;12.90;;;;;;;0.20;82.45;99923.70;87104;1312;22726;-80
2021/12/06 06:05:46;;;;;;;15.70;11.50;;;;;;;0.19;82.63;99926.27;87077;1312;22807;-79
2021/12/06 06:07:52;;;;;;;17.50;12.40;;;;;;;0.18;82.65;99926.27;87085;1311;25942;-80
2021/12/06 06:09:59;;;;;;;16.20;11.70;;;;;;;0.21;82.86;99929.86;87127;1311;22574;-79
2021/12/06 06:12:09;;;;;;;23.70;13.50;;;;;;;0.27;83.27;99926.07;87047;1313;24516;-80
2021/12/06 06:14:16;;;;;;;19.10;13.70;;;;;;;0.27;82.85;99931.71;87087;1311;22748;-79
2021/12/06 06:16:25;;;;;;;19.70;13.40;;;;;;;0.26;82.76;99935.85;87116;1312;22651;-78
2021/12/06 06:18:32;;;;;;;21.10;13.60;;;;;;;0.23;82.66;99936.71;87111;1312;22618;-79
2021/12/06 06:20:40;;;;;;;24.20;13.10;;;;;;;0.21;82.63;99940.84;87085;1312;22856;-79
2021/12/06 06:22:47;;;;;;;17.30;13.00;;;;;;;0.20;82.62;99947.01;87109;1311;22814;-70
2021/12/06 06:24:53;;;;;;;18.90;12.50;;;;;;;0.20;82.73;99949.59;87070;1312;22581;-69
2021/12/06 06:27:00;;;;;;;17.60;12.30;;;;;;;0.22;82.73;99956.27;87146;1311;22569;-79
2021/12/06 06:29:06;;;;;;;18.20;13.10;;;;;;;0.23;82.90;99960.38;87073;1312;22559;-80
2021/12/06 06:31:13;;;;;;;45.00;23.10;;;;;;;0.21;82.79;99964.85;86346;1312;1003189;-78
2021/12/06 06:33:19;;;;;;;67.20;38.70;;;;;;;0.20;82.73;99973.09;87083;1312;22569;-79
2021/12/06 06:35:26;;;;;;;23.40;15.80;;;;;;;0.19;82.61;99979.44;87053;1313;24273;-80
2021/12/06 06:37:32;;;;;;;23.50;15.30;;;;;;;0.18;82.75;99986.46;87098;1311;22573;-79
2021/12/06 06:39:39;;;;;;;21.10;13.30;;;;;;;0.15;82.48;99993.34;87083;1312;22731;-80
2021/12/06 06:41:46;;;;;;;24.40;14.50;;;;;;;0.16;82.80;100000.38;87101;1312;22577;-79
2021/12/06 06:43:55;;;;;;;25.00;15.80;;;;;;;0.15;82.64;100009.30;87094;1312;25537;-79
2021/12/06 06:46:05;;;;;;;25.00;16.20;;;;;;;0.13;82.72;100016.84;87112;1312;24357;-79
2021/12/06 06:48:11;;;;;;;27.90;15.80;;;;;;;0.10;82.59;100017.70;87087;1312;22552;-79
2021/12/06 06:50:18;;;;;;;33.20;16.70;;;;;;;0.09;82.74;100026.61;87119;1312;22659;-80
2021/12/06 06:52:25;;;;;;;31.70;16.90;;;;;;;0.04;82.85;100028.67;87094;1312;22710;-68
2021/12/06 06:54:34;;;;;;;25.90;16.60;;;;;;;0.03;82.58;100030.40;87098;1311;22582;-67
2021/12/06 06:56:41;;;;;;;44.30;18.30;;;;;;;0.02;82.92;100032.27;87108;1312;22601;-68
2021/12/06 06:58:47;;;;;;;37.20;17.80;;;;;;;-0.00;82.91;100039.31;87093;1312;25326;-67
2021/12/06 07:00:54;;;;;;;33.90;17.10;;;;;;;0.01;82.74;100043.44;87087;1312;23031;-74
2021/12/06 07:03:00;;;;;;;35.50;18.40;;;;;;;0.04;83.01;100046.33;87115;1312;22574;-68
2021/12/06 07:05:08;;;;;;;36.00;19.90;;;;;;;0.06;82.78;100048.75;87077;1311;22571;-67
2021/12/06 07:07:15;;;;;;;33.30;18.40;;;;;;;0.08;82.91;100048.91;87086;1311;22560;-80
2021/12/06 07:09:24;;;;;;;25.80;17.00;;;;;;;0.11;83.04;100049.09;87071;1312;24268;-80
2021/12/06 07:11:31;;;;;;;27.60;17.50;;;;;;;0.08;82.98;100046.33;87090;1312;22563;-71
2021/12/06 07:13:38;;;;;;;29.70;18.50;;;;;;;0.05;82.62;100047.55;87079;1312;23850;-68
2021/12/06 07:15:46;;;;;;;33.70;21.20;;;;;;;0.05;82.93;100040.34;87100;1311;22549;-68
2021/12/06 07:17:53;;;;;;;34.00;17.20;;;;;;;0.06;82.79;100037.27;87079;1312;22874;-69
2021/12/06 07:20:01;;;;;;;29.70;17.80;;;;;;;0.05;82.56;100033.48;87056;1312;22757;-68
2021/12/06 07:22:10;;;;;;;26.60;17.80;;;;;;;0.07;82.79;100030.91;87109;1312;22576;-68
2021/12/06 07:24:16;;;;;;;36.70;20.60;;;;;;;0.08;82.90;100026.27;87079;1312;22873;-68
2021/12/06 07:26:23;;;;;;;29.20;17.90;;;;;;;0.09;82.68;100032.09;87108;1312;22559;-71
2021/12/06 07:28:32;;;;;;;36.50;19.40;;;;;;;0.07;82.70;100029.19;87070;1312;22560;-69
2021/12/06 07:30:39;;;;;;;31.70;17.90;;;;;;;0.05;82.75;100028.85;87121;1311;22773;-68
2021/12/06 07:32:45;;;;;;;32.80;19.40;;;;;;;0.04;82.86;100022.15;87133;1312;25630;-79
2021/12/06 07:34:51;;;;;;;37.60;20.00;;;;;;;0.05;82.77;100020.80;86371;1312;1003851;-80
2021/12/06 07:36:58;;;;;;;39.90;19.90;;;;;;;0.02;82.54;100017.37;87072;1312;22565;-69
2021/12/06 07:39:08;;;;;;;36.90;19.60;;;;;;;0.03;82.70;100026.10;87073;1312;22564;-69
2021/12/06 07:41:17;;;;;;;32.70;18.50;;;;;;;0.05;82.80;100030.58;87080;1312;23710;-79
2021/12/06 07:43:26;;;;;;;40.20;21.50;;;;;;;0.07;82.69;100035.36;87089;1312;22575;-79
2021/12/06 07:45:32;;;;;;;37.80;19.00;;;;;;;0.06;82.68;100031.60;87060;1312;23937;-79
2021/12/06 07:47:39;;;;;;;39.10;20.50;;;;;;;0.08;82.97;100025.59;87076;1312;22580;-79
2021/12/06 07:49:45;;;;;;;37.00;20.30;;;;;;;0.11;82.84;100021.99;87085;1312;22724;-79
2021/12/06 07:51:54;;;;;;;40.70;21.70;;;;;;;0.09;82.92;100019.59;86378;1312;1002990;-79
2021/12/06 07:54:02;;;;;;;64.30;24.30;;;;;;;0.07;82.72;100027.83;87092;1312;23824;-80
2021/12/06 07:56:08;;;;;;;72.70;27.00;;;;;;;0.06;82.48;100030.73;87118;1312;24292;-78
2021/12/06 07:58:15;;;;;;;66.60;24.50;;;;;;;0.08;82.52;100039.31;87075;1312;22571;-77
2021/12/06 08:00:23;;;;;;;54.20;22.70;;;;;;;0.08;82.51;100043.42;87091;1312;23763;-79
2021/12/06 08:02:29;;;;;;;42.40;21.60;;;;;;;0.07;82.47;100046.52;87110;1311;22659;-79
2021/12/06 08:04:39;;;;;;;44.40;23.50;;;;;;;0.07;82.40;100049.61;87083;1312;24280;-78
2021/12/06 08:06:46;;;;;;;53.30;24.00;;;;;;;0.05;82.33;100049.27;87101;1312;24202;-68
2021/12/06 08:08:53;;;;;;;50.00;20.70;;;;;;;0.02;82.41;100051.14;86368;1312;1003067;-68
2021/12/06 08:11:06;;;;;;;41.30;21.20;;;;;;;-0.02;82.35;100051.14;87118;1311;22710;-68
2021/12/06 08:13:16;;;;;;;46.80;20.90;;;;;;;-0.03;82.53;100051.33;87065;1312;25454;-68
2021/12/06 08:15:26;;;;;;;63.80;24.00;;;;;;;-0.03;82.44;100042.92;87084;1312;22815;-68
2021/12/06 08:17:35;;;;;;;51.20;25.40;;;;;;;0.02;82.64;100043.27;87084;1311;22581;-68
2021/12/06 08:19:42;;;;;;;43.60;21.00;;;;;;;0.04;82.41;100048.39;87075;1311;22540;-68
2021/12/06 08:21:48;;;;;;;47.90;22.80;;;;;;;0.05;82.42;100049.44;87081;1312;22583;-78
2021/12/06 08:23:55;;;;;;;44.30;23.30;;;;;;;0.09;82.75;100052.68;87080;1312;25351;-79
2021/12/06 08:26:02;;;;;;;46.90;23.70;;;;;;;0.11;82.40;100050.80;87083;1312;22747;-68
2021/12/06 08:28:08;;;;;;;44.80;23.60;;;;;;;0.13;82.62;100049.77;87065;1312;24307;-68
2021/12/06 08:30:16;;;;;;;52.20;25.60;;;;;;;0.13;82.45;100052.52;87094;1312;22559;-68
2021/12/06 08:32:25;;;;;;;51.50;23.70;;;;;;;0.09;82.13;100063.66;87095;1312;22568;-79
2021/12/06 08:34:32;;;;;;;38.60;20.20;;;;;;;0.03;81.98;100078.76;87072;1311;22576;-80
2021/12/06 08:36:38;;;;;;;42.80;21.80;;;;;;;-0.04;81.92;100079.27;87076;1312;23734;-79
2021/12/06 08:38:45;;;;;;;53.30;25.30;;;;;;;-0.06;81.84;100080.64;87079;1312;22648;-79
2021/12/06 08:40:55;;;;;;;57.10;23.70;;;;;;;-0.05;82.08;100077.21;87080;1312;22577;-71
2021/12/06 08:43:01;;;;;;;;;;;;;;;0.01;82.19;100080.14;87086;1312;22554;-82
2021/12/06 08:45:13;;;;;;;38.80;22.50;;;;;;;-0.01;82.29;100084.92;87121;1311;24280;-79
2021/12/06 08:47:21;;;;;;;38.60;25.00;;;;;;;-0.02;82.09;100084.75;87130;1312;22615;-67
2021/12/06 08:49:28;;;;;;;47.20;25.10;;;;;;;-0.03;82.09;100084.92;87066;1312;22586;-67
2021/12/06 08:51:37;;;;;;;40.60;23.80;;;;;;;-0.02;82.30;100083.73;87060;1312;23821;-68
2021/12/06 08:53:44;;;;;;;46.10;25.80;;;;;;;-0.04;82.25;100087.67;87082;1312;22588;-68
2021/12/06 08:55:54;;;;;;;53.80;25.00;;;;;;;-0.05;81.87;100090.93;87082;1312;22710;-68
2021/12/06 08:58:00;;;;;;;59.40;25.80;;;;;;;-0.05;81.97;100094.02;87071;1311;23978;-68
2021/12/06 09:00:14;;;;;;;58.10;26.20;;;;;;;-0.06;82.02;100095.04;87090;1312;22566;-68
2021/12/06 09:02:21;;;;;;;63.50;24.70;;;;;;;-0.02;82.22;100101.55;87128;1312;22592;-79
2021/12/06 09:04:31;;;;;;;66.80;25.70;;;;;;;0.00;81.97;100105.34;87083;1312;23884;-68
2021/12/06 09:06:37;;;;;;;60.10;26.10;;;;;;;-0.03;82.20;100111.16;87082;1311;22559;-77
2021/12/06 09:08:44;;;;;;;52.60;25.60;;;;;;;-0.02;82.39;100106.19;87121;1312;22632;-76
2021/12/06 09:10:52;;;;;;;55.70;27.90;;;;;;;0.00;82.17;100101.55;87098;1312;23819;-76
2021/12/06 09:12:58;;;;;;;58.20;27.40;;;;;;;-0.02;82.13;100099.16;87084;1312;24655;-68
2021/12/06 09:15:08;;;;;;;50.10;25.40;;;;;;;-0.04;81.97;100105.34;87120;1312;22675;-67
2021/12/06 09:17:14;;;;;;;52.20;23.90;;;;;;;-0.03;81.89;100109.45;87097;1311;22576;-78
2021/12/06 09:19:24;;;;;;;76.60;26.70;;;;;;;-0.06;81.91;100112.19;87069;1312;25524;-80
2021/12/06 09:21:36;;;;;;;73.20;26.70;;;;;;;-0.06;82.22;100114.23;87088;1312;22667;-79
2021/12/06 09:23:43;;;;;;;63.30;27.00;;;;;;;-0.03;82.28;100118.20;87071;1312;22556;-79
2021/12/06 09:25:50;;;;;;;89.60;31.10;;;;;;;-0.05;81.96;100124.89;87065;1312;22575;-69
2021/12/06 09:27:56;;;;;;;73.80;30.20;;;;;;;-0.06;81.95;100126.08;87086;1312;22561;-77
2021/12/06 09:30:03;;;;;;;68.30;32.50;;;;;;;-0.04;82.10;100123.70;87078;1311;22575;-77
2021/12/06 09:32:14;;;;;;;74.80;29.70;;;;;;;-0.06;82.03;100125.73;87096;1312;25467;-76
2021/12/06 09:34:20;;;;;;;51.80;26.90;;;;;;;-0.12;81.74;100126.41;87093;1312;22697;-77
2021/12/06 09:36:27;;;;;;;47.80;27.80;;;;;;;-0.15;82.08;100123.83;87091;1312;22574;-78
2021/12/06 09:38:39;;;;;;;49.30;24.80;;;;;;;-0.12;82.00;100123.15;87087;1311;22578;-79
2021/12/06 09:40:50;;;;;;;73.60;28.80;;;;;;;-0.11;82.08;100124.17;87063;1312;22579;-69
2021/12/06 09:42:57;;;;;;;48.30;25.50;;;;;;;-0.10;81.93;100125.56;87093;1312;22585;-69
2021/12/06 09:45:03;;;;;;;49.20;26.90;;;;;;;-0.12;82.11;100122.81;87059;1311;22671;-77
2021/12/06 09:47:10;;;;;;;47.50;26.50;;;;;;;-0.13;81.91;100121.09;87064;1312;22667;-78
2021/12/06 09:49:18;;;;;;;45.00;25.70;;;;;;;-0.14;81.91;100121.44;87069;1312;22553;-69
2021/12/06 09:51:27;;;;;;;49.00;26.00;;;;;;;-0.15;81.91;100121.44;87077;1311;22702;-67
2021/12/06 09:53:35;;;;;;;50.20;25.70;;;;;;;-0.17;81.92;100117.31;87080;1312;24088;-74
2021/12/06 09:55:42;;;;;;;48.10;25.20;;;;;;;-0.18;81.71;100115.09;87093;1311;22643;-68
2021/12/06 09:57:48;;;;;;;44.00;24.10;;;;;;;-0.20;81.60;100110.11;87044;1312;22580;-77
2021/12/06 09:59:55;;;;;;;46.20;27.60;;;;;;;-0.22;81.77;100107.20;87064;1312;23857;-78
2021/12/06 10:02:03;;;;;;;47.70;27.00;;;;;;;-0.21;81.87;100105.30;87117;1312;22705;-69